Time;durP1;ratioP1;P1;durP2;ratioP2;P2;SDS_P1;SDS_P2;PMS_P1;PMS_P2;Temp;Humidity;BMP_temperature;BMP_pressure;BME280_temperature;BME280_humidity;BME280_pressure;Samples;Min_cycle;Max_cycle;Signal;HPM_P1;HPM_P2
2021/12/13 00:00:58;;;;;;;8.65;4.43;;;11.20;99.90;;;10.57;100.00;102106.22;4103032;28;20035;-77
2021/12/13 00:03:53;;;;;;;8.43;4.90;;;11.20;99.90;;;10.47;100.00;102108.75;4104405;29;20027;-77
2021/12/13 00:06:11;;;;;;;7.82;4.93;;;11.20;99.90;;;10.51;100.00;102113.66;4113159;28;20435;-77
2021/12/13 00:08:26;;;;;;;8.57;5.25;;;11.20;99.90;;;10.55;100.00;102109.81;4086920;29;20455;-78
2021/12/13 00:10:54;;;;;;;7.82;4.80;;;11.10;99.90;;;10.45;100.00;102097.50;4102629;28;20054;-78
2021/12/13 00:13:29;;;;;;;6.40;4.50;;;11.10;99.90;;;10.41;100.00;102098.69;4118583;28;20082;-77
2021/12/13 00:15:37;;;;;;;13.65;4.97;;;11.10;99.90;;;10.40;100.00;102089.94;4103537;28;20047;-77
2021/12/13 00:17:50;;;;;;;9.95;5.13;;;11.10;99.90;;;10.47;100.00;102098.19;4104178;28;20042;-78
2021/12/13 00:20:06;;;;;;;10.80;4.88;;;11.10;99.90;;;10.50;100.00;102097.94;4104135;28;20027;-78
2021/12/13 00:22:14;;;;;;;9.52;4.90;;;11.20;99.90;;;10.47;100.00;102092.91;4117432;28;20054;-78
2021/12/13 00:24:22;;;;;;;8.73;4.97;;;11.10;99.90;;;10.50;100.00;102100.59;4102802;29;20027;-78
2021/12/13 00:26:36;;;;;;;9.30;5.30;;;11.10;99.90;;;10.48;100.00;102092.78;4104112;28;20027;-77
2021/12/13 00:28:40;;;;;;;8.82;5.32;;;11.10;99.90;;;10.56;100.00;102100.09;4118935;28;20031;-77
2021/12/13 00:31:24;;;;;;;8.30;4.45;;;11.20;99.90;;;10.53;100.00;102098.56;4118792;28;20073;-77
2021/12/13 00:34:11;;;;;;;8.45;4.90;;;11.20;99.90;;;10.62;100.00;102099.59;4118793;28;20701;-77
2021/12/13 00:36:55;;;;;;;9.95;5.20;;;11.20;99.90;;;10.63;100.00;102100.47;4132982;28;20494;-77
2021/12/13 00:39:22;;;;;;;10.70;5.28;;;11.20;99.90;;;10.61;100.00;102094.44;4096520;29;20031;-77
2021/12/13 00:41:29;;;;;;;6.10;4.60;;;11.20;99.90;;;10.67;100.00;102086.88;4103780;28;20027;-78
2021/12/13 00:43:45;;;;;;;7.85;4.80;;;11.20;99.90;;;10.54;100.00;102086.22;4103967;28;20071;-78
2021/12/13 00:46:07;;;;;;;8.07;5.30;;;11.20;99.90;;;10.54;100.00;102087.00;4117782;28;20035;-78
2021/12/13 00:48:08;;;;;;;7.88;4.80;;;11.20;99.90;;;10.47;100.00;102090.28;4102612;28;20032;-78
2021/12/13 00:50:23;;;;;;;8.65;5.00;;;11.20;99.90;;;10.71;100.00;102096.22;4102681;29;20031;-77
2021/12/13 00:52:25;;;;;;;9.23;5.55;;;11.20;99.90;;;10.73;100.00;102093.44;4103658;28;20031;-77
2021/12/13 00:54:39;;;;;;;8.15;5.03;;;11.20;99.90;;;10.59;100.00;102089.31;4118473;28;20037;-77
2021/12/13 00:57:04;;;;;;;10.67;5.50;;;11.20;99.90;;;10.63;100.00;102095.19;4118651;28;20035;-77
2021/12/13 00:59:06;;;;;;;7.88;4.78;;;11.20;99.90;;;10.50;100.00;102084.75;4103639;28;20027;-77
2021/12/13 01:01:08;;;;;;;11.45;5.65;;;11.20;99.90;;;10.59;100.00;102075.25;4118625;28;20086;-77
2021/12/13 01:03:21;;;;;;;8.20;5.60;;;11.20;99.90;;;10.54;100.00;102079.09;4118479;28;20052;-77
2021/12/13 01:05:24;;;;;;;8.07;5.35;;;11.20;99.90;;;10.52;100.00;102088.09;4104031;28;20063;-77
2021/12/13 01:07:34;;;;;;;15.02;6.68;;;11.10;99.90;;;10.48;100.00;102086.69;4105748;28;20074;-78
2021/12/13 01:10:14;;;;;;;8.93;5.80;;;11.10;99.90;;;10.54;100.00;102087.00;4106955;28;20039;-77
2021/12/13 01:12:19;;;;;;;9.18;5.75;;;11.10;99.90;;;10.50;100.00;102084.75;4106769;28;20077;-77
2021/12/13 01:15:00;;;;;;;11.68;7.32;;;11.20;99.90;;;10.61;100.00;102090.00;4121547;28;20470;-77
2021/12/13 01:17:22;;;;;;;13.23;6.47;;;11.20;99.90;;;10.65;100.00;102083.53;4104912;29;20050;-77
2021/12/13 01:22:00;;;;;;;9.65;7.10;;;11.20;99.90;;;10.64;100.00;102067.81;4106544;28;20023;-77
2021/12/13 01:24:20;;;;;;;13.38;7.78;;;11.20;99.90;;;10.69;100.00;102074.41;4121164;28;20172;-77
2021/12/13 01:26:37;;;;;;;12.00;8.15;;;11.20;99.90;;;10.69;100.00;102069.13;4120516;28;20023;-77
2021/12/13 01:28:45;;;;;;;12.02;8.45;;;11.20;99.90;;;10.59;100.00;102065.56;4120866;28;20023;-77
2021/12/13 01:31:07;;;;;;;18.02;9.52;;;11.20;99.90;;;10.54;100.00;102067.75;4106617;28;20035;-77
2021/12/13 01:33:12;;;;;;;13.45;8.77;;;11.10;99.90;;;10.52;100.00;102061.72;4106417;28;20098;-77
2021/12/13 01:35:27;;;;;;;15.73;9.52;;;11.20;99.90;;;10.60;100.00;102072.53;4106726;28;20027;-78
2021/12/13 01:37:32;;;;;;;18.23;9.27;;;11.10;99.90;;;10.46;100.00;102062.22;4106628;28;20466;-78
2021/12/13 01:39:41;;;;;;;20.02;9.80;;;11.10;99.90;;;10.51;100.00;102065.34;4121112;28;20486;-78
2021/12/13 01:41:49;;;;;;;22.10;10.90;;;11.10;99.90;;;10.43;100.00;102062.47;4106559;28;20031;-77
2021/12/13 01:44:04;;;;;;;14.50;8.82;;;11.10;99.90;;;10.49;100.00;102073.38;4121049;28;20054;-78
2021/12/13 01:46:05;;;;;;;17.48;10.52;;;11.10;99.90;;;10.48;100.00;102065.59;4105061;28;20031;-77
2021/12/13 01:48:14;;;;;;;16.65;11.23;;;11.10;99.90;;;10.50;100.00;102068.94;4133228;28;20027;-77
2021/12/13 01:50:21;;;;;;;19.65;11.43;;;11.10;99.90;;;10.59;100.00;102070.84;4119655;28;20050;-77
2021/12/13 01:52:31;;;;;;;16.83;10.73;;;11.10;99.90;;;10.59;100.00;102062.91;4120904;28;20046;-78
2021/12/13 01:54:32;;;;;;;17.52;11.25;;;11.10;99.90;;;10.48;100.00;102052.41;4105237;28;20027;-77
2021/12/13 01:56:58;;;;;;;13.38;9.68;;;11.10;99.90;;;10.47;100.00;102064.75;4105004;28;20134;-78
2021/12/13 01:59:05;;;;;;;17.63;10.05;;;11.10;99.90;;;10.48;100.00;102058.47;4107465;28;20074;-77
2021/12/13 02:01:21;;;;;;;13.02;9.45;;;11.10;99.90;;;10.47;100.00;102053.34;4094973;29;20062;-78
2021/12/13 02:03:23;;;;;;;15.40;9.43;;;11.10;99.90;;;10.37;100.00;102066.44;4104963;28;20023;-78
2021/12/13 02:05:31;;;;;;;13.65;9.27;;;11.10;99.90;;;10.36;100.00;102071.84;4105781;28;20451;-77
2021/12/13 02:08:07;;;;;;;17.20;10.10;;;11.00;99.90;;;10.15;100.00;102060.34;4120683;28;20030;-78
2021/12/13 02:10:30;;;;;;;14.60;9.65;;;10.90;99.90;;;10.21;100.00;102065.16;4135763;28;20031;-78
2021/12/13 02:12:36;;;;;;;14.73;9.18;;;10.90;99.90;;;10.23;100.00;102068.50;4119526;28;20026;-78
2021/12/13 02:17:34;;;;;;;15.27;8.70;;;10.90;99.90;;;10.25;100.00;102067.41;4101357;28;20042;-78
2021/12/13 02:19:43;;;;;;;16.77;9.18;;;10.90;99.90;;;10.36;100.00;102071.84;4120701;28;20045;-78
2021/12/13 02:21:57;;;;;;;14.80;9.02;;;10.90;99.90;;;10.09;100.00;102059.00;4102768;29;20023;-77
2021/12/13 02:24:10;;;;;;;17.15;9.35;;;10.80;99.90;;;10.23;100.00;102065.84;4119966;28;20077;-77
2021/12/13 02:26:11;;;;;;;14.77;8.80;;;10.80;99.90;;;10.11;100.00;102065.00;4105876;28;20395;-78
2021/12/13 02:28:30;;;;;;;13.77;8.93;;;10.80;99.90;;;10.05;100.00;102052.28;4120540;28;20066;-78
2021/12/13 02:31:00;;;;;;;15.32;9.07;;;10.80;99.90;;;10.16;100.00;102064.66;4105904;28;20032;-77
2021/12/13 02:33:04;;;;;;;17.75;9.02;;;10.70;99.90;;;10.18;100.00;102044.28;4120479;28;20038;-78
2021/12/13 02:35:09;;;;;;;16.48;8.75;;;10.80;99.90;;;10.27;100.00;102057.59;4136116;28;20026;-78
2021/12/13 02:37:13;;;;;;;13.73;8.63;;;10.70;99.90;;;10.25;100.00;102058.66;4096220;29;20063;-78
2021/12/13 02:39:23;;;;;;;16.02;8.68;;;10.80;99.90;;;10.16;100.00;102060.22;4120574;28;20102;-77
2021/12/13 02:41:28;;;;;;;16.83;9.90;;;10.80;99.90;;;10.07;100.00;102052.16;4120093;28;20038;-78
2021/12/13 02:43:39;;;;;;;16.42;8.50;;;10.80;99.90;;;10.18;100.00;102049.56;4120374;28;20101;-78
2021/12/13 02:45:49;;;;;;;11.70;7.60;;;10.80;99.90;;;10.08;100.00;102051.22;4119864;28;20190;-78
2021/12/13 02:48:09;;;;;;;17.13;9.32;;;10.70;99.90;;;10.04;100.00;102055.88;4120100;28;20058;-78
2021/12/13 02:51:05;;;;;;;14.80;7.82;;;10.80;99.90;;;10.10;100.00;102062.47;4119016;28;20035;-78
2021/12/13 02:53:08;;;;;;;14.38;7.65;;;10.70;99.90;;;10.22;100.00;102062.38;4104739;28;20514;-77
2021/12/13 02:55:23;;;;;;;13.57;8.15;;;10.70;99.90;;;10.13;100.00;102051.69;4104261;29;20487;-77
2021/12/13 02:57:32;;;;;;;15.27;8.10;;;10.70;99.90;;;10.04;100.00;102047.97;4120123;28;20023;-77
2021/12/13 02:59:39;;;;;;;12.57;7.60;;;10.70;99.90;;;10.09;100.00;102051.09;4124099;28;20567;-78
2021/12/13 03:01:43;;;;;;;15.38;7.95;;;10.70;99.90;;;10.07;100.00;102053.00;4097633;29;20026;-78
2021/12/13 03:03:48;;;;;;;12.85;7.15;;;10.70;99.90;;;10.03;100.00;102049.75;4105298;29;20035;-78
2021/12/13 03:05:55;;;;;;;14.57;7.38;;;10.70;99.90;;;10.05;100.00;102051.44;4104995;28;20500;-78
2021/12/13 03:08:05;;;;;;;14.10;7.82;;;10.70;99.90;;;10.07;100.00;102050.38;4104205;28;20058;-78
2021/12/13 03:10:23;;;;;;;11.93;7.53;;;10.70;99.90;;;9.96;100.00;102043.31;4105281;29;20031;-77
2021/12/13 03:12:28;;;;;;;16.33;7.40;;;10.60;99.90;;;9.92;100.00;102047.13;4119819;28;20034;-77
2021/12/13 03:14:40;;;;;;;12.60;7.88;;;10.60;99.90;;;10.02;100.00;102048.09;4120198;28;20031;-78
2021/12/13 03:16:56;;;;;;;15.40;8.38;;;10.60;99.90;;;10.18;100.00;102041.66;4105059;29;20395;-78
2021/12/13 03:19:28;;;;;;;13.23;8.07;;;10.70;99.90;;;9.96;100.00;102043.31;4103725;28;20031;-77
2021/12/13 03:22:40;;;;;;;11.48;7.22;;;10.70;99.90;;;9.92;100.00;102048.94;4119354;28;20122;-77
2021/12/13 03:25:33;;;;;;;15.77;7.18;;;10.60;99.90;;;9.93;100.00;102040.06;4098601;29;20074;-78
2021/12/13 03:28:22;;;;;;;10.98;6.82;;;10.60;99.90;;;9.96;100.00;102047.75;4104410;28;20040;-78
2021/12/13 03:30:31;;;;;;;13.50;9.85;;;10.60;99.90;;;10.01;100.00;102041.16;4119701;28;20082;-78
2021/12/13 03:32:45;;;;;;;28.42;9.25;;;10.60;99.90;;;10.01;100.00;102051.69;4098124;29;20035;-78
2021/12/13 03:35:15;;;;;;;15.68;9.98;;;10.60;99.90;;;9.82;100.00;102053.25;4104753;28;20143;-78
2021/12/13 03:37:22;;;;;;;17.67;12.82;;;10.60;99.90;;;9.81;100.00;102049.78;4104821;28;20058;-77
2021/12/13 03:39:39;;;;;;;15.32;11.38;;;10.50;99.90;;;9.80;100.00;102031.44;4119345;28;20039;-78
2021/12/13 03:41:47;;;;;;;14.32;10.80;;;10.50;99.90;;;9.96;100.00;102039.84;4104870;28;20479;-78
2021/12/13 03:44:02;;;;;;;16.67;12.32;;;10.50;99.90;;;9.98;100.00;102036.13;4119385;28;20110;-78
2021/12/13 03:46:08;;;;;;;15.98;12.82;;;10.50;99.90;;;9.92;100.00;102041.88;4103492;29;20023;-78
2021/12/13 03:48:14;;;;;;;19.42;15.10;;;10.50;99.90;;;9.81;100.00;102035.75;4119465;28;20081;-77
2021/12/13 03:50:24;;;;;;;18.58;13.05;;;10.50;99.90;;;9.85;100.00;102040.69;4119011;28;20035;-78
2021/12/13 03:52:30;;;;;;;16.77;13.38;;;10.50;99.90;;;9.81;100.00;102033.13;4118961;28;20414;-78
2021/12/13 03:54:36;;;;;;;17.58;12.82;;;10.50;99.90;;;9.81;100.00;102033.97;4119201;28;20041;-78
2021/12/13 03:56:44;;;;;;;18.10;13.85;;;10.50;99.90;;;9.75;100.00;102034.44;4118992;28;20066;-78
2021/12/13 03:58:55;;;;;;;15.68;12.40;;;10.40;99.90;;;9.72;100.00;102034.69;4103090;28;20581;-78
2021/12/13 04:01:24;;;;;;;20.15;12.80;;;10.40;99.90;;;9.58;100.00;102024.38;4087526;28;20067;-77
2021/12/13 04:03:29;;;;;;;15.15;11.40;;;10.30;99.90;;;9.65;100.00;102027.34;4118512;28;20037;-78
2021/12/13 04:05:31;;;;;;;15.45;11.82;;;10.40;99.90;;;9.74;100.00;102024.00;4118655;28;20239;-78
2021/12/13 04:07:46;;;;;;;12.90;10.73;;;10.30;99.90;;;9.81;100.00;102031.34;4119311;28;20514;-78
2021/12/13 04:09:55;;;;;;;13.68;10.40;;;10.40;99.90;;;9.78;100.00;102021.03;4103185;29;20035;-78
2021/12/13 04:12:01;;;;;;;12.52;9.38;;;10.40;99.90;;;9.67;100.00;102025.47;4118567;28;20054;-78
2021/12/13 04:14:10;;;;;;;13.68;9.27;;;10.40;99.90;;;9.52;100.00;102024.00;4119122;28;20031;-78
2021/12/13 04:16:33;;;;;;;10.52;9.00;;;10.30;99.90;;;9.46;100.00;102020.06;4104381;28;20035;-78
2021/12/13 04:21:05;;;;;;;9.48;7.53;;;10.20;99.90;;;9.52;100.00;102027.47;4104053;28;20115;-78
2021/12/13 04:23:18;;;;;;;13.52;9.85;;;10.20;99.90;;;9.48;100.00;102025.19;4102959;29;20130;-78
2021/12/13 04:25:24;;;;;;;15.80;10.85;;;10.20;99.90;;;9.41;100.00;102027.44;4118693;28;20035;-78
2021/12/13 04:27:57;;;;;;;11.85;9.70;;;10.20;99.90;;;9.38;100.00;102020.63;4118772;28;20102;-78
2021/12/13 04:30:20;;;;;;;18.05;11.60;;;10.10;99.90;;;9.42;100.00;102029.13;4102626;29;20542;-78
2021/12/13 04:32:28;;;;;;;17.60;12.52;;;10.10;99.90;;;9.33;100.00;102027.19;4118397;28;20535;-78
2021/12/13 04:34:30;;;;;;;17.85;11.43;;;10.10;99.90;;;9.23;100.00;102016.53;4104010;28;20065;-78
2021/12/13 04:36:43;;;;;;;18.42;13.18;;;10.00;99.90;;;9.40;100.00;102023.16;4118415;28;20078;-78
2021/12/13 04:39:33;;;;;;;18.55;12.95;;;10.00;99.90;;;9.31;100.00;102018.59;4104071;28;20518;-78
2021/12/13 04:41:49;;;;;;;20.23;12.88;;;10.00;99.90;;;9.48;100.00;102022.56;4102837;29;20043;-78
2021/12/13 04:44:08;;;;;;;20.73;14.60;;;10.10;99.90;;;9.49;100.00;102027.72;4118621;28;20031;-78
2021/12/13 04:46:11;;;;;;;19.67;14.82;;;10.10;99.90;;;9.44;100.00;102024.56;4117518;28;20070;-78
2021/12/13 04:48:20;;;;;;;20.75;13.95;;;10.10;99.90;;;9.42;100.00;102022.06;4134533;28;20117;-78
2021/12/13 04:50:38;;;;;;;22.23;16.13;;;10.10;99.90;;;9.33;100.00;102020.16;4096765;29;20518;-78
2021/12/13 04:52:41;;;;;;;27.40;16.52;;;10.00;99.90;;;9.27;100.00;102020.59;4118246;28;20035;-78
2021/12/13 04:54:51;;;;;;;24.80;16.33;;;10.00;99.90;;;9.17;100.00;102016.16;4103954;28;20558;-78
2021/12/13 04:56:54;;;;;;;27.58;18.85;;;10.00;99.90;;;9.31;100.00;102013.31;4103925;28;20039;-78
2021/12/13 04:58:59;;;;;;;27.88;18.15;;;10.00;99.90;;;9.29;100.00;102009.94;4118478;28;20042;-78
2021/12/13 05:01:10;;;;;;;26.50;17.95;;;10.00;99.90;;;9.25;100.00;102009.38;4118530;28;20038;-78
2021/12/13 05:03:16;;;;;;;32.10;17.83;;;10.00;99.90;;;9.25;100.00;102017.25;4124984;28;20061;-78
2021/12/13 05:05:19;;;;;;;26.08;17.85;;;10.00;99.90;;;9.24;100.00;102018.22;4133832;28;20104;-78
2021/12/13 05:07:20;;;;;;;26.42;17.67;;;9.90;99.90;;;9.00;100.00;102011.31;4134481;28;20422;-78
2021/12/13 05:09:25;;;;;;;25.10;17.20;;;9.90;99.90;;;9.14;100.00;102013.78;4103647;28;20031;-78
2021/12/13 05:11:52;;;;;;;26.27;17.13;;;9.90;99.90;;;9.09;100.00;102015.88;4118298;28;20115;-78
2021/12/13 05:13:56;;;;;;;24.70;16.40;;;9.90;99.90;;;9.18;100.00;102023.09;4117115;28;20058;-78
2021/12/13 05:16:09;;;;;;;22.35;15.25;;;10.00;99.90;;;9.22;100.00;102016.66;4118393;28;20031;-78
2021/12/13 05:18:23;;;;;;;23.00;14.70;;;9.90;99.90;;;9.16;100.00;102015.31;4103631;28;20059;-78
2021/12/13 05:20:33;;;;;;;18.95;13.80;;;9.80;99.90;;;9.15;100.00;102020.69;4117769;28;20491;-78
2021/12/13 05:22:59;;;;;;;16.88;11.60;;;9.80;99.90;;;9.09;100.00;102016.72;4118162;28;20030;-78
2021/12/13 05:25:03;;;;;;;16.88;11.48;;;9.70;99.90;;;9.10;100.00;102007.88;4117878;28;20027;-78
2021/12/13 05:27:15;;;;;;;11.60;9.20;;;9.80;99.90;;;9.16;100.00;102019.75;4134267;28;20057;-78
2021/12/13 05:29:43;;;;;;;9.30;7.57;;;9.70;99.90;;;9.02;100.00;102022.59;4118029;28;20101;-78
2021/12/13 05:31:55;;;;;;;10.10;7.38;;;9.70;99.90;;;8.85;100.00;102021.19;4103177;29;20090;-78
2021/12/13 05:34:02;;;;;;;8.40;7.13;;;9.70;99.90;;;8.80;100.00;102016.28;4102194;28;20677;-78
2021/12/13 05:36:09;;;;;;;8.85;7.47;;;9.60;99.90;;;8.83;100.00;102023.94;4102137;29;20466;-78
2021/12/13 05:38:26;;;;;;;9.13;7.45;;;9.60;99.90;;;8.92;100.00;102026.84;4117636;28;20078;-78
2021/12/13 05:40:45;;;;;;;10.60;7.30;;;9.60;99.90;;;8.96;100.00;102017.78;4117892;28;20117;-79
2021/12/13 05:42:55;;;;;;;8.55;6.68;;;9.60;99.90;;;9.01;100.00;102015.63;4118170;28;20035;-78
2021/12/13 05:44:56;;;;;;;8.20;6.05;;;9.60;99.90;;;9.05;100.00;102025.00;4118164;28;20030;-78
2021/12/13 05:47:02;;;;;;;6.88;6.18;;;9.60;99.90;;;8.99;100.00;102034.16;4102122;28;20037;-78
2021/12/13 05:49:18;;;;;;;7.20;6.05;;;9.60;99.90;;;8.76;100.00;102021.88;4102239;29;20067;-78
2021/12/13 05:51:36;;;;;;;5.72;5.13;;;9.60;99.90;;;8.76;100.00;102025.34;4117284;28;20085;-78
2021/12/13 05:53:47;;;;;;;7.95;5.10;;;9.60;99.90;;;8.94;100.00;102027.56;4104918;28;20026;-78
2021/12/13 05:56:17;;;;;;;6.00;4.90;;;9.60;99.90;;;8.78;100.00;102028.69;4104810;28;20030;-78
2021/12/13 05:58:45;;;;;;;5.97;5.05;;;9.50;99.90;;;8.73;100.00;102038.72;4104887;28;20035;-78
2021/12/13 06:00:52;;;;;;;7.82;5.35;;;9.50;99.90;;;8.60;100.00;102043.19;4105947;28;20491;-79
2021/12/13 06:03:16;;;;;;;7.38;4.88;;;9.50;99.90;;;8.73;100.00;102051.88;4120723;28;20027;-78
2021/12/13 06:05:29;;;;;;;6.57;4.88;;;9.30;99.90;;;8.68;100.00;102040.84;4105569;28;20175;-78
2021/12/13 06:07:40;;;;;;;7.22;5.30;;;9.30;99.90;;;8.66;100.00;102034.03;4106447;28;20034;-79
2021/12/13 06:10:00;;;;;;;6.15;5.05;;;9.40;99.90;;;8.77;100.00;102037.56;4120713;28;20142;-78
2021/12/13 06:12:07;;;;;;;7.07;5.25;;;9.30;99.90;;;8.76;100.00;102032.38;4119732;28;20026;-79
2021/12/13 06:14:21;;;;;;;7.13;4.85;;;9.40;99.90;;;8.79;100.00;102035.66;4121104;28;20031;-78
2021/12/13 06:16:27;;;;;;;7.38;5.93;;;9.30;99.90;;;8.74;100.00;102042.19;4105089;28;20031;-78
2021/12/13 06:18:55;;;;;;;7.38;5.32;;;9.40;99.90;;;8.67;100.00;102033.91;4106158;28;20039;-78
2021/12/13 06:21:22;;;;;;;7.57;6.20;;;9.40;99.90;;;8.74;100.00;102045.66;4119189;28;20537;-78
2021/12/13 06:23:33;;;;;;;6.50;4.50;;;9.40;99.90;;;8.59;100.00;102025.75;4105189;29;20491;-78
2021/12/13 06:25:36;;;;;;;8.10;5.53;;;9.30;99.90;;;8.75;100.00;102042.06;4107027;28;20027;-79
2021/12/13 06:27:48;;;;;;;9.10;6.22;;;9.30;99.90;;;8.72;100.00;102042.28;4106878;28;20395;-79
2021/12/13 06:30:00;;;;;;;6.07;5.03;;;9.30;99.90;;;8.76;100.00;102032.38;4121518;28;20034;-79
2021/12/13 06:32:01;;;;;;;11.25;7.25;;;9.40;99.90;;;8.71;100.00;102040.63;4106936;28;20123;-80
2021/12/13 06:34:16;;;;;;;9.65;7.57;;;9.40;99.90;;;8.83;100.00;102033.63;4105342;28;20098;-79
2021/12/13 06:36:42;;;;;;;7.53;5.72;;;9.50;99.90;;;8.88;100.00;102042.84;4105313;29;20031;-79
2021/12/13 06:38:46;;;;;;;7.45;5.60;;;9.50;99.90;;;8.90;100.00;102035.69;4107054;28;20031;-79
2021/12/13 06:41:09;;;;;;;7.63;5.43;;;9.50;99.90;;;8.84;100.00;102041.41;4121199;28;20450;-80
2021/12/13 06:43:32;;;;;;;8.15;6.22;;;9.40;99.90;;;8.89;100.00;102033.19;4120316;28;20475;-79
2021/12/13 06:45:36;;;;;;;6.28;5.43;;;9.50;99.90;;;8.77;100.00;102045.44;4105246;28;20028;-78
2021/12/13 06:47:49;;;;;;;6.90;5.50;;;9.50;99.90;;;8.77;100.00;102028.81;4121364;28;20050;-78
2021/12/13 06:49:57;;;;;;;6.88;5.60;;;9.50;99.90;;;8.84;100.00;102030.88;4121310;28;20038;-78
2021/12/13 06:52:13;;;;;;;8.90;6.47;;;9.50;99.90;;;8.78;100.00;102033.94;4120909;28;20042;-78
2021/12/13 06:54:24;;;;;;;7.35;5.43;;;9.50;99.90;;;8.80;100.00;102039.13;4105129;28;20030;-78
2021/12/13 06:56:33;;;;;;;7.47;5.05;;;9.40;99.90;;;8.89;100.00;102044.53;4105521;28;20039;-78
2021/12/13 06:58:34;;;;;;;5.90;4.85;;;9.60;99.90;;;8.86;100.00;102034.25;4106647;28;20407;-78
2021/12/13 07:00:37;;;;;;;6.28;4.97;;;9.50;99.90;;;8.95;100.00;102037.16;4121422;28;20042;-78
2021/12/13 07:02:47;;;;;;;5.87;4.73;;;9.60;99.90;;;8.86;100.00;102038.66;4106000;28;20031;-77
2021/12/13 07:05:14;;;;;;;4.53;4.03;;;9.50;99.90;;;8.90;100.00;102040.94;4106407;29;20315;-78
2021/12/13 07:07:17;;;;;;;5.85;4.20;;;9.50;99.90;;;8.89;100.00;102034.03;4106465;28;20086;-78
2021/12/13 07:09:23;;;;;;;5.20;4.05;;;9.50;99.90;;;8.86;100.00;102029.00;4137622;28;20031;-78
2021/12/13 07:11:24;;;;;;;4.60;3.75;;;9.50;99.90;;;8.83;100.00;102025.75;4121203;28;20050;-79
2021/12/13 07:13:35;;;;;;;3.95;3.25;;;9.50;99.90;;;8.92;100.00;102029.47;4121190;28;20027;-75
2021/12/13 07:15:54;;;;;;;3.33;2.97;;;9.50;99.90;;;8.87;100.00;102024.53;4106041;29;20031;-74
2021/12/13 07:18:04;;;;;;;3.65;3.25;;;9.50;99.90;;;8.96;100.00;102018.59;4119995;28;20034;-75
2021/12/13 07:20:16;;;;;;;4.18;3.72;;;9.50;99.90;;;8.86;100.00;102028.13;4105960;29;20032;-76
2021/12/13 07:22:25;;;;;;;4.05;3.25;;;9.40;99.90;;;8.86;100.00;102029.00;4104502;28;20027;-76
2021/12/13 07:24:50;;;;;;;3.00;2.70;;;9.50;99.90;;;8.87;100.00;102017.47;4105676;28;20042;-79
2021/12/13 07:27:05;;;;;;;;;;;9.50;99.90;;;8.93;100.00;102021.44;4105823;28;20078;-78
2021/12/13 07:29:24;;;;;;;3.13;2.57;;;9.60;99.90;;;8.99;100.00;102025.44;4105847;29;19943;-78
2021/12/13 07:31:26;;;;;;;2.88;2.58;;;9.50;99.90;;;9.06;100.00;102018.75;4105957;28;20310;-78
2021/12/13 07:33:44;;;;;;;3.83;2.97;;;9.60;99.90;;;9.03;100.00;102021.59;4120535;28;20030;-78
2021/12/13 07:35:48;;;;;;;5.80;3.42;;;9.60;99.90;;;9.04;100.00;102021.50;4120373;28;20522;-78
2021/12/13 07:38:18;;;;;;;5.30;3.40;;;9.60;99.90;;;9.05;100.00;102027.63;4104555;28;20035;-78
2021/12/13 07:40:34;;;;;;;4.60;3.33;;;9.60;99.90;;;8.93;100.00;102018.00;4105581;28;20034;-78
2021/12/13 07:42:35;;;;;;;4.20;3.20;;;9.70;99.90;;;9.08;100.00;102022.94;4120173;28;20114;-78
2021/12/13 07:44:47;;;;;;;5.80;3.58;;;9.60;99.90;;;9.26;100.00;102036.50;4105538;28;20026;-78
2021/12/13 07:47:14;;;;;;;5.18;3.67;;;9.60;99.90;;;9.13;100.00;102028.72;4105320;28;20035;-77
2021/12/13 07:49:16;;;;;;;3.92;3.53;;;9.70;99.90;;;8.92;100.00;102032.94;4119002;28;20031;-78
2021/12/13 07:51:34;;;;;;;3.10;2.80;;;9.70;99.90;;;8.94;100.00;102051.25;4120043;28;20042;-78
2021/12/13 07:53:58;;;;;;;3.47;3.00;;;9.60;99.90;;;8.96;100.00;102055.44;4105504;28;20498;-78
2021/12/13 07:55:59;;;;;;;3.22;2.90;;;9.60;99.90;;;8.96;100.00;102049.34;4105042;28;20495;-78
2021/12/13 07:58:04;;;;;;;3.97;3.00;;;9.60;99.90;;;8.95;100.00;102055.56;4119209;28;20026;-78
2021/12/13 08:00:35;;;;;;;3.17;2.70;;;9.70;99.90;;;8.88;100.00;102050.75;4119049;28;20046;-80
2021/12/13 08:02:37;;;;;;;3.35;2.92;;;9.60;99.90;;;8.79;100.00;102053.22;4103836;28;20023;-80
2021/12/13 08:05:00;;;;;;;3.03;2.70;;;9.60;99.90;;;8.75;100.00;102057.03;4118840;28;20078;-80
2021/12/13 08:07:41;;;;;;;3.75;3.45;;;9.50;99.90;;;8.74;100.00;102064.09;4118712;28;20081;-80
2021/12/13 08:10:00;;;;;;;4.72;3.65;;;9.50;99.90;;;8.82;100.00;102072.25;4124120;28;20041;-80
2021/12/13 08:12:25;;;;;;;5.50;3.90;;;9.40;99.90;;;9.04;100.00;102079.41;4104010;28;20027;-80
2021/12/13 08:14:39;;;;;;;5.65;4.00;;;9.50;99.90;;;8.97;100.00;102082.59;4118520;28;20045;-80
2021/12/13 08:16:48;;;;;;;4.97;4.25;;;9.50;99.90;;;8.83;100.00;102087.09;4130733;28;20034;-80
2021/12/13 08:18:49;;;;;;;4.38;3.97;;;9.50;99.90;;;8.86;100.00;102089.50;4118660;28;20066;-80
2021/12/13 08:21:00;;;;;;;4.93;4.43;;;9.50;99.90;;;8.76;100.00;102090.28;4094128;29;20038;-80
2021/12/13 08:23:03;;;;;;;4.75;4.18;;;9.50;99.90;;;8.92;100.00;102096.09;4098976;29;20082;-80
2021/12/13 08:25:14;;;;;;;5.32;4.82;;;9.40;99.90;;;8.76;100.00;102096.38;4118608;28;20051;-80
2021/12/13 08:27:32;;;;;;;5.70;5.07;;;9.50;99.90;;;8.79;100.00;102090.88;4102349;28;20028;-80
2021/12/13 08:29:38;;;;;;;5.65;4.97;;;9.50;99.90;;;8.90;100.00;102093.56;4103740;28;20097;-80
2021/12/13 08:31:39;;;;;;;6.63;5.20;;;9.50;99.90;;;8.86;100.00;102096.56;4103773;29;20066;-80
2021/12/13 08:33:47;;;;;;;5.47;4.93;;;9.50;99.90;;;8.84;100.00;102095.84;4118761;28;20401;-80
2021/12/13 08:36:07;;;;;;;7.28;5.45;;;9.50;99.90;;;8.93;100.00;102081.16;4118057;28;20026;-80
2021/12/13 08:38:08;;;;;;;7.10;5.47;;;9.50;99.90;;;8.87;100.00;102087.69;4118152;28;20034;-80
2021/12/13 08:40:19;;;;;;;6.18;5.20;;;9.50;99.90;;;8.83;100.00;102094.16;4118548;28;20031;-80
2021/12/13 08:42:24;;;;;;;6.55;5.75;;;9.50;99.90;;;8.77;100.00;102087.53;4118006;28;20031;-80
2021/12/13 08:44:39;;;;;;;8.30;7.15;;;9.50;99.90;;;8.83;100.00;102092.34;4103617;28;20031;-80
2021/12/13 08:46:52;;;;;;;8.02;7.13;;;9.50;99.90;;;8.92;100.00;102108.41;4117575;28;20168;-80
2021/12/13 08:48:53;;;;;;;7.18;6.47;;;9.50;99.90;;;8.83;100.00;102099.41;4103778;28;20036;-80
2021/12/13 08:50:58;;;;;;;8.38;6.97;;;9.60;99.90;;;8.86;100.00;102102.66;4118144;28;20031;-79
2021/12/13 08:53:09;;;;;;;7.50;5.85;;;9.50;99.90;;;8.78;100.00;102099.72;4118440;28;20031;-80
2021/12/13 08:55:12;;;;;;;6.40;5.75;;;9.50;99.90;;;8.85;100.00;102110.66;4103548;28;20108;-79
2021/12/13 08:57:53;;;;;;;7.50;6.35;;;9.60;99.90;;;8.83;100.00;102112.56;4103601;28;20035;-80
2021/12/13 08:59:55;;;;;;;7.40;5.80;;;9.50;99.90;;;8.87;100.00;102112.22;4103421;28;20035;-80
2021/12/13 09:02:07;;;;;;;8.50;5.60;;;9.50;99.90;;;8.91;100.00;102112.84;4103446;28;20024;-80
2021/12/13 09:04:10;;;;;;;9.68;6.45;;;9.60;99.90;;;8.89;100.00;102110.34;4118072;28;20023;-79
2021/12/13 09:06:16;;;;;;;9.43;6.75;;;9.50;99.90;;;8.94;100.00;102109.13;4103291;28;20024;-79
2021/12/13 09:08:24;;;;;;;10.00;6.90;;;9.70;99.90;;;8.89;100.00;102101.59;4102134;29;20034;-80
2021/12/13 09:10:56;;;;;;;8.52;7.05;;;9.60;99.90;;;8.89;100.00;102107.69;4132767;28;20169;-80
2021/12/13 09:12:57;;;;;;;6.55;5.82;;;9.60;99.90;;;8.90;100.00;102114.63;4116783;28;20110;-80
2021/12/13 09:15:06;;;;;;;8.43;5.75;;;9.60;99.90;;;8.94;100.00;102114.41;4118294;28;20073;-80
2021/12/13 09:17:22;;;;;;;7.10;6.40;;;9.70;99.90;;;8.96;100.00;102120.41;4117605;28;20031;-79
2021/12/13 09:19:32;;;;;;;5.75;5.18;;;9.70;99.90;;;9.00;100.00;102113.94;4117943;28;20505;-79
2021/12/13 09:22:00;;;;;;;7.47;6.15;;;9.70;99.90;;;9.09;100.00;102119.38;4113525;28;20102;-80